Time;durP1;ratioP1;P1;durP2;ratioP2;P2;SDS_P1;SDS_P2;PMS_P1;PMS_P2;Temp;Humidity;BMP_temperature;BMP_pressure;BME280_temperature;BME280_humidity;BME280_pressure;Samples;Min_cycle;Max_cycle;Signal;HPM_P1;HPM_P2
2023/04/29 00:00:55;;;;;;;33.22;27.63;;;;;;;;;;5090945;28;20035;-64
2023/04/29 00:03:20;;;;;;;41.00;27.52;;;;;;;;;;5089566;28;20044;-64
2023/04/29 00:05:46;;;;;;;41.13;28.05;;;;;;;;;;5090556;28;20028;-64
2023/04/29 00:08:11;;;;;;;39.90;27.33;;;;;;;;;;5092997;28;20094;-64
2023/04/29 00:10:36;;;;;;;35.97;27.83;;;;;;;;;;5094133;28;20531;-64
2023/04/29 00:13:02;;;;;;;35.38;27.85;;;;;;;;;;5093544;28;20035;-64
2023/04/29 00:15:27;;;;;;;44.72;30.02;;;;;;;;;;5093874;28;20020;-64
2023/04/29 00:17:52;;;;;;;43.80;30.55;;;;;;;;;;5093871;28;20115;-64
2023/04/29 00:20:17;;;;;;;40.92;28.48;;;;;;;;;;5093655;28;20024;-64
2023/04/29 00:22:43;;;;;;;37.83;29.75;;;;;;;;;;5089340;28;20024;-63
2023/04/29 00:25:09;;;;;;;44.50;29.40;;;;;;;;;;5093768;28;20020;-63
2023/04/29 00:27:34;;;;;;;35.90;29.15;;;;;;;;;;5093916;28;20032;-64
2023/04/29 00:30:00;;;;;;;45.28;29.63;;;;;;;;;;5093165;28;20034;-64
2023/04/29 00:32:25;;;;;;;37.95;30.25;;;;;;;;;;5093548;28;20020;-63
2023/04/29 00:34:50;;;;;;;40.33;29.38;;;;;;;;;;5092418;28;20391;-64
2023/04/29 00:37:15;;;;;;;42.10;31.13;;;;;;;;;;5093757;28;20031;-63
2023/04/29 00:39:41;;;;;;;39.63;29.70;;;;;;;;;;5093782;28;20378;-64
2023/04/29 00:42:06;;;;;;;46.35;30.55;;;;;;;;;;5094000;28;20123;-64
2023/04/29 00:44:32;;;;;;;38.60;29.10;;;;;;;;;;5093049;28;20462;-64
2023/04/29 00:46:58;;;;;;;41.83;28.83;;;;;;;;;;5093296;28;20075;-64
2023/04/29 00:49:23;;;;;;;40.95;29.20;;;;;;;;;;5092658;28;20024;-64
2023/04/29 00:51:48;;;;;;;40.65;29.85;;;;;;;;;;5093421;28;20356;-65
2023/04/29 00:54:14;;;;;;;45.80;29.10;;;;;;;;;;5092587;28;20036;-64
2023/04/29 00:56:42;;;;;;;40.22;29.25;;;;;;;;;;5092784;28;20028;-64
2023/04/29 00:59:09;;;;;;;44.53;30.30;;;;;;;;;;5093186;28;20020;-63
2023/04/29 01:01:35;;;;;;;47.65;30.42;;;;;;;;;;5081234;28;20111;-63
2023/04/29 01:04:00;;;;;;;41.60;29.30;;;;;;;;;;5091957;28;20028;-64
2023/04/29 01:06:45;;;;;;;36.47;29.13;;;;;;;;;;5093244;28;20103;-64
2023/04/29 01:09:18;;;;;;;38.45;28.88;;;;;;;;;;5092449;28;20028;-64
2023/04/29 01:12:16;;;;;;;37.57;27.80;;;;;;;;;;5092987;28;20097;-64
2023/04/29 01:14:42;;;;;;;40.45;30.48;;;;;;;;;;5069091;28;20343;-64
2023/04/29 01:17:14;;;;;;;44.60;31.35;;;;;;;;;;5091648;28;20478;-63
2023/04/29 01:19:47;;;;;;;41.42;30.73;;;;;;;;;;5092379;28;20039;-63
2023/04/29 01:22:17;;;;;;;36.72;29.80;;;;;;;;;;5092650;28;20153;-63
2023/04/29 01:24:42;;;;;;;40.83;29.77;;;;;;;;;;5092187;28;20035;-62
2023/04/29 01:27:26;;;;;;;43.10;31.88;;;;;;;;;;5093037;28;20035;-64
2023/04/29 01:29:57;;;;;;;42.28;32.33;;;;;;;;;;5092632;28;20364;-63
2023/04/29 01:32:35;;;;;;;55.58;33.72;;;;;;;;;;5092451;28;20094;-62
2023/04/29 01:35:03;;;;;;;56.13;37.17;;;;;;;;;;5092785;28;20677;-63
2023/04/29 01:37:46;;;;;;;53.78;38.85;;;;;;;;;;5093309;28;20024;-63
2023/04/29 01:40:16;;;;;;;57.45;42.30;;;;;;;;;;5093189;28;20028;-63
2023/04/29 01:42:47;;;;;;;61.65;42.47;;;;;;;;;;5092333;28;20028;-64
2023/04/29 01:45:15;;;;;;;60.90;42.17;;;;;;;;;;5091998;28;20032;-64
2023/04/29 01:47:41;;;;;;;73.93;44.58;;;;;;;;;;5092112;28;20516;-63
2023/04/29 01:50:07;;;;;;;62.70;42.58;;;;;;;;;;5092575;28;20384;-62
2023/04/29 01:52:32;;;;;;;64.72;40.45;;;;;;;;;;5092303;28;20042;-63
2023/04/29 01:54:57;;;;;;;53.63;38.40;;;;;;;;;;5092349;28;20031;-63
2023/04/29 01:57:23;;;;;;;50.05;39.47;;;;;;;;;;5089064;28;20024;-63
2023/04/29 01:59:48;;;;;;;50.25;39.17;;;;;;;;;;5082232;28;20020;-63
2023/04/29 02:02:19;;;;;;;55.15;39.00;;;;;;;;;;5091622;28;20060;-64
2023/04/29 02:04:45;;;;;;;48.78;37.78;;;;;;;;;;5092513;28;20020;-63
2023/04/29 02:07:10;;;;;;;59.35;40.95;;;;;;;;;;5091711;28;20773;-63
2023/04/29 02:09:35;;;;;;;61.75;39.13;;;;;;;;;;5092226;28;20022;-63
2023/04/29 02:12:03;;;;;;;53.30;38.30;;;;;;;;;;5091956;28;20335;-63
2023/04/29 02:14:29;;;;;;;58.70;38.95;;;;;;;;;;5091896;28;20062;-63
2023/04/29 02:16:54;;;;;;;53.83;38.03;;;;;;;;;;5092023;28;20067;-63
2023/04/29 02:19:19;;;;;;;59.03;39.60;;;;;;;;;;5091977;28;20028;-63
2023/04/29 02:21:44;;;;;;;61.83;38.75;;;;;;;;;;5092236;28;20027;-62
2023/04/29 02:24:10;;;;;;;56.25;39.08;;;;;;;;;;5091914;28;20036;-63
2023/04/29 02:26:37;;;;;;;57.28;41.80;;;;;;;;;;5090813;28;20073;-63
2023/04/29 02:29:02;;;;;;;58.35;41.60;;;;;;;;;;5083883;28;20035;-62
2023/04/29 02:31:28;;;;;;;63.60;40.75;;;;;;;;;;5091750;28;20523;-63
2023/04/29 02:33:53;;;;;;;61.30;40.38;;;;;;;;;;5091878;28;20020;-63
2023/04/29 02:36:19;;;;;;;58.30;41.15;;;;;;;;;;5092119;28;20074;-63
2023/04/29 02:38:44;;;;;;;66.78;43.08;;;;;;;;;;5090665;28;20412;-63
2023/04/29 02:41:09;;;;;;;78.43;46.50;;;;;;;;;;5090893;28;20134;-63
2023/04/29 02:43:34;;;;;;;71.53;47.28;;;;;;;;;;5091403;28;20033;-63
2023/04/29 02:46:00;;;;;;;61.15;43.85;;;;;;;;;;5089985;28;20475;-63
2023/04/29 02:48:25;;;;;;;57.38;43.63;;;;;;;;;;5079152;28;20023;-63
2023/04/29 02:50:51;;;;;;;71.18;49.50;;;;;;;;;;5091288;28;20028;-64
2023/04/29 02:53:16;;;;;;;75.45;52.33;;;;;;;;;;5091608;28;20103;-62
2023/04/29 02:55:42;;;;;;;76.80;53.38;;;;;;;;;;5090690;28;20298;-63
2023/04/29 02:58:08;;;;;;;68.32;50.13;;;;;;;;;;5090976;28;20024;-64
2023/04/29 03:00:33;;;;;;;79.22;51.47;;;;;;;;;;5077697;28;20386;-63
2023/04/29 03:02:58;;;;;;;75.18;51.97;;;;;;;;;;5091167;28;20024;-64
2023/04/29 03:05:23;;;;;;;83.28;53.83;;;;;;;;;;5089917;28;20024;-63
2023/04/29 03:07:49;;;;;;;76.95;53.03;;;;;;;;;;5091978;28;20028;-63
2023/04/29 03:10:15;;;;;;;72.90;53.53;;;;;;;;;;5090582;28;20103;-63
2023/04/29 03:12:40;;;;;;;70.30;52.45;;;;;;;;;;5090446;28;20036;-63
2023/04/29 03:15:06;;;;;;;72.57;54.33;;;;;;;;;;5090967;28;20031;-63
2023/04/29 03:17:33;;;;;;;85.28;54.70;;;;;;;;;;5091660;28;20039;-63
2023/04/29 03:19:58;;;;;;;75.32;53.25;;;;;;;;;;5091083;28;20024;-62
2023/04/29 03:22:23;;;;;;;74.10;52.85;;;;;;;;;;5091173;28;20040;-63
2023/04/29 03:24:48;;;;;;;71.47;50.08;;;;;;;;;;5079463;28;20032;-63
2023/04/29 03:27:14;;;;;;;59.47;43.45;;;;;;;;;;5091079;28;20031;-63
2023/04/29 03:29:39;;;;;;;66.25;44.58;;;;;;;;;;5091150;28;20368;-63
2023/04/29 03:32:04;;;;;;;53.22;42.83;;;;;;;;;;5090977;28;20081;-62
2023/04/29 03:34:30;;;;;;;53.20;41.15;;;;;;;;;;5090296;28;20411;-63
2023/04/29 03:36:56;;;;;;;57.25;39.33;;;;;;;;;;5091326;28;20027;-63
2023/04/29 03:39:21;;;;;;;59.13;40.72;;;;;;;;;;5090650;28;20489;-62
2023/04/29 03:41:46;;;;;;;54.55;38.63;;;;;;;;;;5093197;28;20044;-62
2023/04/29 03:44:12;;;;;;;53.40;39.80;;;;;;;;;;5094122;28;20509;-62
2023/04/29 03:46:37;;;;;;;59.88;40.30;;;;;;;;;;5094095;28;20494;-63
2023/04/29 03:49:03;;;;;;;55.45;37.92;;;;;;;;;;5093920;28;20040;-63
2023/04/29 03:51:28;;;;;;;51.15;38.55;;;;;;;;;;5093927;28;20058;-63
2023/04/29 03:53:55;;;;;;;57.13;40.58;;;;;;;;;;5094069;28;20474;-63
2023/04/29 03:56:21;;;;;;;57.95;38.72;;;;;;;;;;5094127;28;20024;-63
2023/04/29 03:58:47;;;;;;;57.72;39.75;;;;;;;;;;5093176;28;20125;-63
2023/04/29 04:01:12;;;;;;;55.50;36.88;;;;;;;;;;5094027;28;20040;-63
2023/04/29 04:03:38;;;;;;;51.40;37.28;;;;;;;;;;5094095;28;20023;-62
2023/04/29 04:06:03;;;;;;;49.05;37.42;;;;;;;;;;5093516;28;20024;-63
2023/04/29 04:08:28;;;;;;;48.65;36.83;;;;;;;;;;5094128;28;20047;-62
2023/04/29 04:10:53;;;;;;;43.80;34.20;;;;;;;;;;5090110;28;20387;-62
2023/04/29 04:13:18;;;;;;;47.63;33.80;;;;;;;;;;5092086;28;20092;-63
2023/04/29 04:15:50;;;;;;;37.63;31.65;;;;;;;;;;5093958;28;20036;-63
2023/04/29 04:18:16;;;;;;;51.80;33.78;;;;;;;;;;5093026;28;20099;-63
2023/04/29 04:20:41;;;;;;;57.92;37.33;;;;;;;;;;5093205;28;20081;-63
2023/04/29 04:23:06;;;;;;;45.70;34.90;;;;;;;;;;5093576;28;20032;-62
2023/04/29 04:25:32;;;;;;;61.22;36.30;;;;;;;;;;5093698;28;20028;-63
2023/04/29 04:27:57;;;;;;;49.25;36.78;;;;;;;;;;5093272;28;20070;-63
2023/04/29 04:30:23;;;;;;;50.95;38.10;;;;;;;;;;5084401;28;20036;-63
2023/04/29 04:32:48;;;;;;;52.58;36.67;;;;;;;;;;5092410;28;20074;-63
2023/04/29 04:35:13;;;;;;;54.47;38.83;;;;;;;;;;5085398;28;20090;-63
2023/04/29 04:37:39;;;;;;;55.45;38.17;;;;;;;;;;5091830;28;20031;-63
2023/04/29 04:40:05;;;;;;;57.60;39.40;;;;;;;;;;5093453;28;20017;-63
2023/04/29 04:42:30;;;;;;;51.50;37.20;;;;;;;;;;5081196;28;20028;-63
2023/04/29 04:44:56;;;;;;;56.88;40.22;;;;;;;;;;5092874;28;20488;-64
2023/04/29 04:47:21;;;;;;;57.25;37.65;;;;;;;;;;5093378;28;20020;-63
2023/04/29 04:49:48;;;;;;;54.05;38.78;;;;;;;;;;5093267;28;20063;-64
2023/04/29 04:52:13;;;;;;;53.03;39.22;;;;;;;;;;5079736;28;20111;-64
2023/04/29 04:54:39;;;;;;;57.95;40.05;;;;;;;;;;5076439;28;20119;-64
2023/04/29 04:57:04;;;;;;;54.03;39.10;;;;;;;;;;5091975;28;20062;-64
2023/04/29 04:59:30;;;;;;;52.10;37.50;;;;;;;;;;5093075;28;20024;-63
2023/04/29 05:01:55;;;;;;;60.03;40.33;;;;;;;;;;5092781;28;20036;-63
2023/04/29 05:04:20;;;;;;;57.80;39.35;;;;;;;;;;5090004;28;20038;-63
2023/04/29 05:06:46;;;;;;;57.58;41.72;;;;;;;;;;5093204;28;20020;-62
2023/04/29 05:09:11;;;;;;;62.63;40.97;;;;;;;;;;5093034;28;20024;-63
2023/04/29 05:11:37;;;;;;;55.83;41.47;;;;;;;;;;5092750;28;20031;-64
2023/04/29 05:14:02;;;;;;;66.38;41.03;;;;;;;;;;5093376;28;20493;-63
2023/04/29 05:16:27;;;;;;;57.67;39.97;;;;;;;;;;5092448;28;20023;-63
2023/04/29 05:18:53;;;;;;;51.90;37.20;;;;;;;;;;5092372;28;20039;-62
2023/04/29 05:21:18;;;;;;;54.00;38.40;;;;;;;;;;5079258;28;20690;-62
2023/04/29 05:23:43;;;;;;;58.22;40.55;;;;;;;;;;5081499;28;20031;-63
2023/04/29 05:26:08;;;;;;;50.40;37.72;;;;;;;;;;5078955;28;20835;-63
2023/04/29 05:28:34;;;;;;;59.90;38.47;;;;;;;;;;5071920;28;20020;-66
2023/04/29 05:30:59;;;;;;;55.05;38.33;;;;;;;;;;5077235;28;20536;-65
2023/04/29 05:33:25;;;;;;;52.28;38.60;;;;;;;;;;5078638;28;20019;-65
2023/04/29 05:35:50;;;;;;;47.22;34.70;;;;;;;;;;5083014;28;20030;-63
2023/04/29 05:38:15;;;;;;;40.58;35.20;;;;;;;;;;5080534;28;20031;-63
2023/04/29 05:40:40;;;;;;;46.80;34.47;;;;;;;;;;5072139;28;20024;-63
2023/04/29 05:43:06;;;;;;;50.28;33.67;;;;;;;;;;5072961;28;20147;-63
2023/04/29 05:45:31;;;;;;;42.17;34.13;;;;;;;;;;5068292;28;20056;-63
2023/04/29 05:47:56;;;;;;;46.50;33.38;;;;;;;;;;5075773;28;20020;-63
2023/04/29 05:50:22;;;;;;;37.58;30.70;;;;;;;;;;5080238;28;20038;-63
2023/04/29 05:52:47;;;;;;;42.88;30.63;;;;;;;;;;5071785;28;20520;-63
2023/04/29 05:55:12;;;;;;;41.30;31.20;;;;;;;;;;5077214;28;20040;-63
2023/04/29 05:57:38;;;;;;;40.03;30.05;;;;;;;;;;5061873;28;20027;-64
2023/04/29 06:00:03;;;;;;;36.80;29.45;;;;;;;;;;5066070;28;20024;-63
2023/04/29 06:02:29;;;;;;;43.78;30.23;;;;;;;;;;5076568;28;20082;-63
2023/04/29 06:04:55;;;;;;;42.08;27.27;;;;;;;;;;5069376;28;20028;-63
2023/04/29 06:07:21;;;;;;;33.65;27.45;;;;;;;;;;5074556;28;20509;-64
2023/04/29 06:09:46;;;;;;;39.05;27.00;;;;;;;;;;5079979;28;20027;-63
2023/04/29 06:12:12;;;;;;;40.10;26.42;;;;;;;;;;5074043;28;20768;-63
2023/04/29 06:14:37;;;;;;;37.67;25.17;;;;;;;;;;5077530;28;20019;-63
2023/04/29 06:17:02;;;;;;;36.90;26.15;;;;;;;;;;5074470;28;20032;-63
2023/04/29 06:19:28;;;;;;;34.65;26.35;;;;;;;;;;5080789;28;20424;-63
2023/04/29 06:21:53;;;;;;;44.15;27.10;;;;;;;;;;5080337;28;20106;-63
2023/04/29 06:24:18;;;;;;;34.45;24.73;;;;;;;;;;5084500;28;20027;-62
2023/04/29 06:26:44;;;;;;;28.83;23.80;;;;;;;;;;5078880;28;20549;-63
2023/04/29 06:29:09;;;;;;;28.63;23.83;;;;;;;;;;5082712;28;20068;-63
2023/04/29 06:31:35;;;;;;;33.13;27.15;;;;;;;;;;5078013;28;20378;-62
2023/04/29 06:34:00;;;;;;;41.15;26.73;;;;;;;;;;5082249;28;20071;-62
2023/04/29 06:36:26;;;;;;;33.05;25.92;;;;;;;;;;5087176;28;20386;-63
2023/04/29 06:38:51;;;;;;;32.53;24.77;;;;;;;;;;5085508;28;20152;-62
2023/04/29 06:41:16;;;;;;;30.98;25.45;;;;;;;;;;5080134;28;20040;-63
2023/04/29 06:43:42;;;;;;;35.35;24.45;;;;;;;;;;5079102;28;20039;-62
2023/04/29 06:46:07;;;;;;;37.30;24.85;;;;;;;;;;5081689;28;20024;-62
2023/04/29 06:48:32;;;;;;;37.45;23.98;;;;;;;;;;5061897;28;20028;-62
2023/04/29 06:50:58;;;;;;;30.52;24.90;;;;;;;;;;5083680;28;20032;-64
2023/04/29 06:53:24;;;;;;;41.42;25.23;;;;;;;;;;5085222;28;20500;-62
2023/04/29 06:55:49;;;;;;;29.15;22.77;;;;;;;;;;5078797;28;20032;-62
2023/04/29 06:58:15;;;;;;;37.55;25.85;;;;;;;;;;5077175;28;20024;-62
2023/04/29 07:00:43;;;;;;;35.58;26.73;;;;;;;;;;5063430;28;20028;-63
2023/04/29 07:03:09;;;;;;;32.95;24.05;;;;;;;;;;5042809;28;20870;-62
2023/04/29 07:05:35;;;;;;;33.75;23.10;;;;;;;;;;5055369;28;20127;-63
2023/04/29 07:08:00;;;;;;;35.20;23.08;;;;;;;;;;5056943;28;20020;-63
2023/04/29 07:10:26;;;;;;;43.25;26.35;;;;;;;;;;5060571;28;20066;-63
2023/04/29 07:12:51;;;;;;;38.22;26.13;;;;;;;;;;5060763;28;20040;-63
2023/04/29 07:15:17;;;;;;;33.20;24.85;;;;;;;;;;5054988;28;20950;-63
2023/04/29 07:17:42;;;;;;;39.10;25.33;;;;;;;;;;5058245;28;20040;-63
2023/04/29 07:20:08;;;;;;;38.10;25.17;;;;;;;;;;5066991;28;20080;-63
2023/04/29 07:22:33;;;;;;;35.45;25.23;;;;;;;;;;5064551;28;20542;-63
2023/04/29 07:24:58;;;;;;;41.78;26.17;;;;;;;;;;5062108;28;20024;-63
2023/04/29 07:27:23;;;;;;;30.67;23.80;;;;;;;;;;5062437;28;20081;-63
2023/04/29 07:29:49;;;;;;;30.83;23.50;;;;;;;;;;5064550;28;20897;-63
2023/04/29 07:32:14;;;;;;;27.48;22.15;;;;;;;;;;5060478;28;20024;-63
2023/04/29 07:34:40;;;;;;;28.10;22.95;;;;;;;;;;5033231;28;20083;-63
2023/04/29 07:37:05;;;;;;;32.83;24.90;;;;;;;;;;5058003;28;20139;-63
2023/04/29 07:39:30;;;;;;;36.92;24.92;;;;;;;;;;5061908;28;20062;-63
2023/04/29 07:41:56;;;;;;;40.40;24.13;;;;;;;;;;5052800;28;20045;-63
2023/04/29 07:44:21;;;;;;;33.25;22.10;;;;;;;;;;5045788;28;20034;-64
2023/04/29 07:46:46;;;;;;;34.58;22.75;;;;;;;;;;5055961;28;20020;-64
2023/04/29 07:49:12;;;;;;;31.88;24.02;;;;;;;;;;5063510;28;20036;-64
2023/04/29 07:51:40;;;;;;;30.33;22.67;;;;;;;;;;5059153;28;20063;-63
2023/04/29 07:54:05;;;;;;;32.38;22.60;;;;;;;;;;5057696;28;20028;-62
2023/04/29 07:56:30;;;;;;;27.42;22.75;;;;;;;;;;5054043;28;21051;-64
2023/04/29 07:58:55;;;;;;;29.35;21.60;;;;;;;;;;5051238;28;20857;-62
2023/04/29 08:01:21;;;;;;;26.63;21.02;;;;;;;;;;5050684;28;20090;-62
2023/04/29 08:03:46;;;;;;;30.98;20.30;;;;;;;;;;5049998;28;20996;-64
2023/04/29 08:06:11;;;;;;;32.63;21.98;;;;;;;;;;5044761;28;20032;-62
2023/04/29 08:08:37;;;;;;;30.80;21.42;;;;;;;;;;5052545;28;20113;-64
2023/04/29 08:11:02;;;;;;;26.33;20.15;;;;;;;;;;5065074;28;20814;-63
2023/04/29 08:13:27;;;;;;;29.25;19.90;;;;;;;;;;5054036;28;20044;-63
2023/04/29 08:15:53;;;;;;;28.48;21.80;;;;;;;;;;5077078;28;20032;-63
2023/04/29 08:18:18;;;;;;;25.73;20.40;;;;;;;;;;5071717;28;20078;-62
2023/04/29 08:20:43;;;;;;;22.42;19.30;;;;;;;;;;5070175;28;20439;-62
2023/04/29 08:23:09;;;;;;;27.88;19.77;;;;;;;;;;5065453;28;20562;-63
2023/04/29 08:25:34;;;;;;;25.35;18.45;;;;;;;;;;5052357;28;20977;-63
2023/04/29 08:27:59;;;;;;;23.92;18.33;;;;;;;;;;5056159;28;20058;-62
2023/04/29 08:30:25;;;;;;;24.95;18.42;;;;;;;;;;5056784;28;20991;-63
2023/04/29 08:32:50;;;;;;;28.73;19.25;;;;;;;;;;5062523;28;20021;-65
2023/04/29 08:35:15;;;;;;;24.38;19.13;;;;;;;;;;5077171;28;20028;-64
2023/04/29 08:37:40;;;;;;;28.67;19.02;;;;;;;;;;5067128;28;20798;-61
2023/04/29 08:40:07;;;;;;;24.48;18.10;;;;;;;;;;5076792;28;20055;-64
2023/04/29 08:42:33;;;;;;;29.42;18.92;;;;;;;;;;5078617;28;20066;-62
2023/04/29 08:45:00;;;;;;;25.20;18.45;;;;;;;;;;5073307;28;20664;-62
2023/04/29 08:47:26;;;;;;;26.63;18.52;;;;;;;;;;5058790;28;20020;-62
2023/04/29 08:49:52;;;;;;;24.40;17.83;;;;;;;;;;5058671;28;20580;-62
2023/04/29 08:52:18;;;;;;;26.27;20.58;;;;;;;;;;5049546;28;20024;-63
2023/04/29 08:54:43;;;;;;;24.92;17.80;;;;;;;;;;5047183;28;20012;-62
2023/04/29 08:57:09;;;;;;;24.45;20.75;;;;;;;;;;5053257;28;20046;-63
2023/04/29 08:59:35;;;;;;;38.45;21.30;;;;;;;;;;5069050;28;20024;-63
2023/04/29 09:02:01;;;;;;;25.58;19.42;;;;;;;;;;5054532;28;20189;-62
2023/04/29 09:04:38;;;;;;;28.55;18.40;;;;;;;;;;5055183;28;20039;-62
2023/04/29 09:07:04;;;;;;;22.33;17.70;;;;;;;;;;5045801;28;20032;-62
2023/04/29 09:09:31;;;;;;;22.13;17.45;;;;;;;;;;5046749;28;20926;-62
2023/04/29 09:11:57;;;;;;;24.33;17.83;;;;;;;;;;5047056;28;20052;-62
2023/04/29 09:14:23;;;;;;;24.40;17.67;;;;;;;;;;5039052;28;20435;-62
2023/04/29 09:16:48;;;;;;;21.17;16.02;;;;;;;;;;5046819;28;20077;-63
2023/04/29 09:19:33;;;;;;;23.73;16.90;;;;;;;;;;5040442;28;20127;-63
2023/04/29 09:21:58;;;;;;;;;;;;;;;;;;5068396;28;20038;-63
2023/04/29 09:24:27;;;;;;;22.53;17.20;;;;;;;;;;5041138;28;20849;-62
2023/04/29 09:26:52;;;;;;;26.85;18.00;;;;;;;;;;5059189;28;20032;-62
2023/04/29 09:29:17;;;;;;;20.38;14.98;;;;;;;;;;5045113;28;20035;-63
2023/04/29 09:31:44;;;;;;;24.38;15.50;;;;;;;;;;5045540;28;20024;-63
2023/04/29 09:34:10;;;;;;;19.02;16.17;;;;;;;;;;5047059;28;20089;-63
2023/04/29 09:36:36;;;;;;;18.55;14.32;;;;;;;;;;5070401;28;20069;-63
2023/04/29 09:39:02;;;;;;;21.33;15.13;;;;;;;;;;5088647;28;20041;-63
2023/04/29 09:41:27;;;;;;;20.52;15.52;;;;;;;;;;5080765;28;20032;-62
2023/04/29 09:44:05;;;;;;;19.52;15.07;;;;;;;;;;5092315;28;20031;-63
2023/04/29 09:46:32;;;;;;;18.30;14.80;;;;;;;;;;5092288;28;20470;-64
2023/04/29 09:48:57;;;;;;;19.05;15.32;;;;;;;;;;5091823;28;20050;-63
2023/04/29 09:51:22;;;;;;;19.50;14.57;;;;;;;;;;5092426;28;20028;-63
2023/04/29 09:53:48;;;;;;;17.58;14.80;;;;;;;;;;5092220;28;20015;-62
2023/04/29 09:56:13;;;;;;;18.23;14.77;;;;;;;;;;5092781;28;20035;-62
2023/04/29 09:58:39;;;;;;;19.13;14.57;;;;;;;;;;5081554;28;20038;-63
2023/04/29 10:01:05;;;;;;;21.38;14.10;;;;;;;;;;5091667;28;20063;-62
2023/04/29 10:03:32;;;;;;;16.30;14.55;;;;;;;;;;5092045;28;20028;-63
2023/04/29 10:06:00;;;;;;;23.65;16.02;;;;;;;;;;5092712;28;20048;-63
2023/04/29 10:08:26;;;;;;;19.45;15.93;;;;;;;;;;5092154;28;20023;-62
2023/04/29 10:10:56;;;;;;;22.40;16.30;;;;;;;;;;5091986;28;20016;-62
2023/04/29 10:13:22;;;;;;;19.42;15.45;;;;;;;;;;5066160;28;20892;-63
2023/04/29 10:15:51;;;;;;;21.67;16.30;;;;;;;;;;5082001;28;20034;-63
2023/04/29 10:18:20;;;;;;;19.08;15.30;;;;;;;;;;5038172;28;20020;-63
2023/04/29 10:20:46;;;;;;;16.27;13.75;;;;;;;;;;5043788;28;20016;-63
2023/04/29 10:23:13;;;;;;;19.38;14.38;;;;;;;;;;5044862;28;20130;-63
2023/04/29 10:25:38;;;;;;;21.13;16.05;;;;;;;;;;5045456;28;20767;-63
2023/04/29 10:28:05;;;;;;;24.33;17.33;;;;;;;;;;5036959;28;20035;-64
2023/04/29 10:30:30;;;;;;;22.77;16.60;;;;;;;;;;5024819;28;20089;-63
2023/04/29 10:32:58;;;;;;;25.05;15.05;;;;;;;;;;5040486;28;20835;-63
2023/04/29 10:35:24;;;;;;;25.67;16.27;;;;;;;;;;5044549;28;20016;-64
2023/04/29 10:37:50;;;;;;;19.10;15.20;;;;;;;;;;5045913;28;20130;-63
2023/04/29 10:40:17;;;;;;;28.40;16.33;;;;;;;;;;5043810;28;20966;-63
2023/04/29 10:42:43;;;;;;;23.60;15.93;;;;;;;;;;5042875;28;20684;-63
2023/04/29 10:45:27;;;;;;;24.20;17.55;;;;;;;;;;5045476;28;20020;-63
2023/04/29 10:48:02;;;;;;;22.73;15.98;;;;;;;;;;5042358;28;20134;-63
2023/04/29 10:50:32;;;;;;;19.73;16.05;;;;;;;;;;5037289;28;20761;-63
2023/04/29 10:53:00;;;;;;;20.65;16.70;;;;;;;;;;5043868;28;20027;-62
2023/04/29 10:55:26;;;;;;;30.20;17.40;;;;;;;;;;5044200;28;20343;-64
2023/04/29 10:57:55;;;;;;;21.27;15.95;;;;;;;;;;5041709;28;20572;-64
2023/04/29 11:00:28;;;;;;;20.17;15.45;;;;;;;;;;5045288;28;20078;-64
2023/04/29 11:02:53;;;;;;;21.55;16.05;;;;;;;;;;5044559;28;20134;-63
2023/04/29 11:05:28;;;;;;;18.40;16.48;;;;;;;;;;5046448;28;20739;-62
2023/04/29 11:08:22;;;;;;;22.98;16.30;;;;;;;;;;5046040;28;20024;-65
2023/04/29 11:10:47;;;;;;;18.63;16.23;;;;;;;;;;5021971;28;20190;-62
2023/04/29 11:13:29;;;;;;;22.20;16.23;;;;;;;;;;5033624;28;20891;-62
2023/04/29 11:16:04;;;;;;;20.38;16.48;;;;;;;;;;5035985;28;20054;-62
2023/04/29 11:18:29;;;;;;;27.20;15.55;;;;;;;;;;5040152;28;20021;-62
2023/04/29 11:21:03;;;;;;;23.38;15.75;;;;;;;;;;5073666;28;20043;-62
2023/04/29 11:23:28;;;;;;;;;;;;;;;;;;5056792;28;20886;-62
2023/04/29 11:25:54;;;;;;;19.43;15.87;;;;;;;;;;5052701;28;19969;-63
2023/04/29 11:28:19;;;;;;;22.08;16.38;;;;;;;;;;5041909;28;20265;-63
2023/04/29 11:30:45;;;;;;;19.40;16.42;;;;;;;;;;5058838;28;20701;-63
2023/04/29 11:33:10;;;;;;;19.73;15.68;;;;;;;;;;5050224;28;20086;-63
2023/04/29 11:35:38;;;;;;;21.95;16.92;;;;;;;;;;5044674;28;20099;-63
2023/04/29 11:38:04;;;;;;;19.50;14.88;;;;;;;;;;5054811;28;20024;-63
2023/04/29 11:40:31;;;;;;;19.65;15.27;;;;;;;;;;5052558;28;20044;-63
2023/04/29 11:42:56;;;;;;;19.63;15.70;;;;;;;;;;5035710;28;20093;-63
2023/04/29 11:45:23;;;;;;;21.05;15.50;;;;;;;;;;5054918;28;20196;-63
2023/04/29 11:47:49;;;;;;;19.95;16.25;;;;;;;;;;5052542;28;20036;-63
2023/04/29 11:50:18;;;;;;;24.92;15.65;;;;;;;;;;5047530;28;20824;-63
2023/04/29 11:52:45;;;;;;;21.00;14.88;;;;;;;;;;5036690;28;20016;-63
2023/04/29 11:55:11;;;;;;;23.95;16.95;;;;;;;;;;5044177;28;20024;-63
2023/04/29 11:57:37;;;;;;;20.25;15.65;;;;;;;;;;5045533;28;20082;-63
2023/04/29 12:00:03;;;;;;;20.55;15.80;;;;;;;;;;5044888;28;20090;-63
2023/04/29 12:02:31;;;;;;;18.25;14.77;;;;;;;;;;5042451;28;20031;-63
2023/04/29 12:04:57;;;;;;;20.88;14.55;;;;;;;;;;5059668;28;20525;-63
2023/04/29 12:07:23;;;;;;;16.88;13.80;;;;;;;;;;5082313;28;20051;-63
2023/04/29 12:09:48;;;;;;;16.05;14.02;;;;;;;;;;5085045;28;20502;-64
2023/04/29 12:12:14;;;;;;;21.52;14.48;;;;;;;;;;5093993;28;20024;-64
2023/04/29 12:14:43;;;;;;;18.67;15.77;;;;;;;;;;5093855;28;20467;-64
2023/04/29 12:17:08;;;;;;;14.68;12.48;;;;;;;;;;5093321;28;20032;-64
2023/04/29 12:19:36;;;;;;;16.98;13.30;;;;;;;;;;5091447;28;20028;-64
2023/04/29 12:22:05;;;;;;;18.88;13.10;;;;;;;;;;5094015;28;20038;-64
2023/04/29 12:24:37;;;;;;;28.85;15.70;;;;;;;;;;5092768;28;20024;-63
2023/04/29 12:27:03;;;;;;;19.05;14.57;;;;;;;;;;5092656;28;20031;-62
2023/04/29 12:29:30;;;;;;;19.33;13.52;;;;;;;;;;5093189;28;20455;-63
2023/04/29 12:31:55;;;;;;;23.45;13.35;;;;;;;;;;5093833;28;20107;-64
2023/04/29 12:34:23;;;;;;;19.63;14.23;;;;;;;;;;5093290;28;20503;-64
2023/04/29 12:36:49;;;;;;;17.77;13.98;;;;;;;;;;5090072;28;20055;-64
2023/04/29 12:39:15;;;;;;;19.33;14.70;;;;;;;;;;5093367;28;20051;-64
2023/04/29 12:41:41;;;;;;;19.55;15.85;;;;;;;;;;5093974;28;20289;-65
2023/04/29 12:44:06;;;;;;;17.25;13.15;;;;;;;;;;5093126;28;20028;-64
2023/04/29 12:46:36;;;;;;;21.02;14.43;;;;;;;;;;5093465;28;20540;-64
2023/04/29 12:49:02;;;;;;;18.52;13.45;;;;;;;;;;5093176;28;20023;-64
2023/04/29 12:51:28;;;;;;;19.40;13.50;;;;;;;;;;5093274;28;20532;-65
2023/04/29 12:53:53;;;;;;;15.07;12.50;;;;;;;;;;5093570;28;20099;-64
2023/04/29 12:56:18;;;;;;;16.00;12.40;;;;;;;;;;5092914;28;20023;-65
2023/04/29 12:58:44;;;;;;;16.38;13.48;;;;;;;;;;5092895;28;20081;-65
2023/04/29 13:01:09;;;;;;;14.85;11.90;;;;;;;;;;5093225;28;20499;-65
2023/04/29 13:03:34;;;;;;;15.75;13.15;;;;;;;;;;5091428;28;20043;-64
2023/04/29 13:06:01;;;;;;;20.70;13.50;;;;;;;;;;5092965;28;20539;-64
2023/04/29 13:08:26;;;;;;;17.52;12.60;;;;;;;;;;5093395;28;20012;-64
2023/04/29 13:10:52;;;;;;;19.60;13.37;;;;;;;;;;5093031;28;20498;-65
2023/04/29 13:13:17;;;;;;;19.98;12.65;;;;;;;;;;5092408;28;20278;-64
2023/04/29 13:15:43;;;;;;;14.00;11.60;;;;;;;;;;5093187;28;20035;-63
2023/04/29 13:18:08;;;;;;;16.83;13.38;;;;;;;;;;5092519;28;20032;-64
2023/04/29 13:20:34;;;;;;;18.55;12.02;;;;;;;;;;5092988;28;20020;-62
2023/04/29 13:22:59;;;;;;;16.25;12.93;;;;;;;;;;5092362;28;20036;-67
2023/04/29 13:25:24;;;;;;;18.80;12.80;;;;;;;;;;5092210;28;20446;-64
2023/04/29 13:27:50;;;;;;;15.63;12.20;;;;;;;;;;5092348;28;20052;-64
2023/04/29 13:30:15;;;;;;;15.82;11.38;;;;;;;;;;5092899;28;20085;-64
2023/04/29 13:32:40;;;;;;;15.50;11.77;;;;;;;;;;5085012;28;20031;-64
2023/04/29 13:35:06;;;;;;;16.50;12.55;;;;;;;;;;5091324;28;20036;-63
2023/04/29 13:37:32;;;;;;;24.52;12.20;;;;;;;;;;5087993;28;20386;-66
2023/04/29 13:39:57;;;;;;;16.02;12.18;;;;;;;;;;5080741;28;20031;-65
2023/04/29 13:42:22;;;;;;;21.40;11.87;;;;;;;;;;5088605;28;20036;-63
2023/04/29 13:44:49;;;;;;;15.27;10.95;;;;;;;;;;5092164;28;20286;-69
2023/04/29 13:47:14;;;;;;;14.95;12.32;;;;;;;;;;5092173;28;20416;-67
2023/04/29 13:49:42;;;;;;;13.52;12.00;;;;;;;;;;5092501;28;20020;-64
2023/04/29 13:52:08;;;;;;;18.77;13.45;;;;;;;;;;5074171;28;20421;-64
2023/04/29 13:54:33;;;;;;;16.50;11.70;;;;;;;;;;5085084;28;20028;-64
2023/04/29 13:56:58;;;;;;;16.13;12.05;;;;;;;;;;5091773;28;20028;-63
2023/04/29 13:59:24;;;;;;;25.38;12.02;;;;;;;;;;5092235;28;20031;-63
2023/04/29 14:01:50;;;;;;;16.40;12.55;;;;;;;;;;5091795;28;20024;-63
2023/04/29 14:04:15;;;;;;;18.45;11.60;;;;;;;;;;5092126;28;20080;-62
2023/04/29 14:06:41;;;;;;;11.30;9.00;;;;;;;;;;5092503;28;20107;-63
2023/04/29 14:09:06;;;;;;;15.25;11.80;;;;;;;;;;5088268;28;20023;-63
2023/04/29 14:11:35;;;;;;;12.52;9.70;;;;;;;;;;5091921;28;20163;-63
2023/04/29 14:14:00;;;;;;;16.05;10.57;;;;;;;;;;5092296;28;20028;-64